sensor_id;sensor_type;location;lat;lon;timestamp;P1;durP1;ratioP1;P2;durP2;ratioP2
24159;SDS011;62385;41.594;23.808;2023-05-15T00:02:08;1.38;;;1.20;;
24159;SDS011;62385;41.594;23.808;2023-05-15T00:04:34;3.67;;;2.05;;
24159;SDS011;62385;41.594;23.808;2023-05-15T00:07:00;2.20;;;1.55;;
24159;SDS011;62385;41.594;23.808;2023-05-15T00:09:25;2.55;;;1.65;;
24159;SDS011;62385;41.594;23.808;2023-05-15T00:11:52;1.48;;;1.35;;
24159;SDS011;62385;41.594;23.808;2023-05-15T00:14:18;3.80;;;1.45;;
24159;SDS011;62385;41.594;23.808;2023-05-15T00:16:43;1.70;;;1.15;;
24159;SDS011;62385;41.594;23.808;2023-05-15T00:19:09;1.95;;;1.42;;
24159;SDS011;62385;41.594;23.808;2023-05-15T00:21:34;1.65;;;0.98;;
24159;SDS011;62385;41.594;23.808;2023-05-15T00:24:00;2.83;;;2.17;;
24159;SDS011;62385;41.594;23.808;2023-05-15T00:26:26;2.10;;;1.25;;
24159;SDS011;62385;41.594;23.808;2023-05-15T00:28:51;1.70;;;0.95;;
24159;SDS011;62385;41.594;23.808;2023-05-15T00:31:17;3.08;;;1.60;;
24159;SDS011;62385;41.594;23.808;2023-05-15T00:33:42;1.67;;;1.30;;
24159;SDS011;62385;41.594;23.808;2023-05-15T00:36:09;5.22;;;1.30;;
24159;SDS011;62385;41.594;23.808;2023-05-15T00:38:34;15.10;;;1.60;;
24159;SDS011;62385;41.594;23.808;2023-05-15T00:41:01;1.33;;;1.10;;
24159;SDS011;62385;41.594;23.808;2023-05-15T00:43:30;1.02;;;0.77;;
24159;SDS011;62385;41.594;23.808;2023-05-15T00:45:58;1.63;;;0.90;;
24159;SDS011;62385;41.594;23.808;2023-05-15T00:48:24;1.35;;;1.15;;
24159;SDS011;62385;41.594;23.808;2023-05-15T00:50:51;1.23;;;0.88;;
24159;SDS011;62385;41.594;23.808;2023-05-15T00:53:18;2.78;;;1.67;;
24159;SDS011;62385;41.594;23.808;2023-05-15T00:55:46;1.05;;;0.88;;
24159;SDS011;62385;41.594;23.808;2023-05-15T00:58:14;1.10;;;0.68;;
24159;SDS011;62385;41.594;23.808;2023-05-15T01:00:41;5.93;;;1.05;;
24159;SDS011;62385;41.594;23.808;2023-05-15T01:03:07;1.33;;;1.17;;
24159;SDS011;62385;41.594;23.808;2023-05-15T01:05:33;1.55;;;0.95;;
24159;SDS011;62385;41.594;23.808;2023-05-15T01:08:03;2.45;;;1.23;;
24159;SDS011;62385;41.594;23.808;2023-05-15T01:10:37;6.18;;;1.95;;
24159;SDS011;62385;41.594;23.808;2023-05-15T01:13:06;4.47;;;1.60;;
24159;SDS011;62385;41.594;23.808;2023-05-15T01:15:34;1.83;;;1.58;;
24159;SDS011;62385;41.594;23.808;2023-05-15T01:18:00;2.15;;;0.88;;
24159;SDS011;62385;41.594;23.808;2023-05-15T01:20:26;1.15;;;0.73;;
24159;SDS011;62385;41.594;23.808;2023-05-15T01:26:00;2.28;;;1.65;;
24159;SDS011;62385;41.594;23.808;2023-05-15T01:28:29;2.22;;;1.30;;
24159;SDS011;62385;41.594;23.808;2023-05-15T01:31:00;2.28;;;1.60;;
24159;SDS011;62385;41.594;23.808;2023-05-15T01:33:34;2.65;;;1.63;;
24159;SDS011;62385;41.594;23.808;2023-05-15T01:36:09;1.65;;;1.20;;
24159;SDS011;62385;41.594;23.808;2023-05-15T01:38:45;1.10;;;1.00;;
24159;SDS011;62385;41.594;23.808;2023-05-15T01:41:15;1.27;;;1.17;;
24159;SDS011;62385;41.594;23.808;2023-05-15T01:43:51;1.27;;;0.93;;
24159;SDS011;62385;41.594;23.808;2023-05-15T01:46:26;2.30;;;1.58;;
24159;SDS011;62385;41.594;23.808;2023-05-15T01:48:54;2.75;;;1.85;;
24159;SDS011;62385;41.594;23.808;2023-05-15T01:51:22;1.23;;;1.13;;
24159;SDS011;62385;41.594;23.808;2023-05-15T01:53:50;1.98;;;1.65;;
24159;SDS011;62385;41.594;23.808;2023-05-15T01:56:18;1.58;;;1.00;;
24159;SDS011;62385;41.594;23.808;2023-05-15T01:58:46;2.13;;;1.48;;
24159;SDS011;62385;41.594;23.808;2023-05-15T02:01:13;2.78;;;1.48;;
24159;SDS011;62385;41.594;23.808;2023-05-15T02:03:40;2.70;;;1.92;;
24159;SDS011;62385;41.594;23.808;2023-05-15T02:06:08;1.30;;;1.20;;
24159;SDS011;62385;41.594;23.808;2023-05-15T02:08:35;2.05;;;1.55;;
24159;SDS011;62385;41.594;23.808;2023-05-15T02:11:02;3.55;;;1.77;;
24159;SDS011;62385;41.594;23.808;2023-05-15T02:13:28;2.90;;;1.50;;
24159;SDS011;62385;41.594;23.808;2023-05-15T02:15:55;1.98;;;1.42;;
24159;SDS011;62385;41.594;23.808;2023-05-15T02:18:22;3.35;;;1.83;;
24159;SDS011;62385;41.594;23.808;2023-05-15T02:20:47;1.75;;;1.52;;
24159;SDS011;62385;41.594;23.808;2023-05-15T02:23:14;2.40;;;1.75;;
24159;SDS011;62385;41.594;23.808;2023-05-15T02:26:18;6.05;;;1.77;;
24159;SDS011;62385;41.594;23.808;2023-05-15T02:29:12;1.92;;;1.33;;
24159;SDS011;62385;41.594;23.808;2023-05-15T02:31:49;2.45;;;1.55;;
24159;SDS011;62385;41.594;23.808;2023-05-15T02:34:38;2.88;;;1.73;;
24159;SDS011;62385;41.594;23.808;2023-05-15T02:37:23;1.95;;;1.65;;
24159;SDS011;62385;41.594;23.808;2023-05-15T02:39:52;3.72;;;1.63;;
24159;SDS011;62385;41.594;23.808;2023-05-15T02:42:19;4.47;;;1.80;;
24159;SDS011;62385;41.594;23.808;2023-05-15T02:44:46;4.65;;;1.33;;
24159;SDS011;62385;41.594;23.808;2023-05-15T02:47:13;2.10;;;1.52;;
24159;SDS011;62385;41.594;23.808;2023-05-15T02:49:39;1.60;;;1.50;;
24159;SDS011;62385;41.594;23.808;2023-05-15T02:52:05;2.10;;;1.65;;
24159;SDS011;62385;41.594;23.808;2023-05-15T02:54:32;5.10;;;1.67;;
24159;SDS011;62385;41.594;23.808;2023-05-15T02:56:57;2.22;;;1.77;;
24159;SDS011;62385;41.594;23.808;2023-05-15T02:59:23;1.52;;;1.42;;
24159;SDS011;62385;41.594;23.808;2023-05-15T03:01:49;2.08;;;1.88;;
24159;SDS011;62385;41.594;23.808;2023-05-15T03:04:16;4.90;;;1.38;;
24159;SDS011;62385;41.594;23.808;2023-05-15T03:06:42;2.42;;;1.60;;
24159;SDS011;62385;41.594;23.808;2023-05-15T03:09:08;3.65;;;1.58;;
24159;SDS011;62385;41.594;23.808;2023-05-15T03:11:34;3.38;;;1.15;;
24159;SDS011;62385;41.594;23.808;2023-05-15T03:13:59;1.83;;;1.63;;
24159;SDS011;62385;41.594;23.808;2023-05-15T03:16:25;5.47;;;2.17;;
24159;SDS011;62385;41.594;23.808;2023-05-15T03:18:53;2.53;;;1.98;;
24159;SDS011;62385;41.594;23.808;2023-05-15T03:21:18;3.28;;;2.05;;
24159;SDS011;62385;41.594;23.808;2023-05-15T03:23:44;4.88;;;2.55;;
24159;SDS011;62385;41.594;23.808;2023-05-15T03:26:10;2.10;;;1.92;;
24159;SDS011;62385;41.594;23.808;2023-05-15T03:28:36;3.10;;;1.80;;
24159;SDS011;62385;41.594;23.808;2023-05-15T03:31:02;5.57;;;1.83;;
24159;SDS011;62385;41.594;23.808;2023-05-15T03:33:32;1.92;;;1.15;;
24159;SDS011;62385;41.594;23.808;2023-05-15T03:35:58;2.03;;;1.42;;
24159;SDS011;62385;41.594;23.808;2023-05-15T03:38:25;2.58;;;1.50;;
24159;SDS011;62385;41.594;23.808;2023-05-15T03:40:51;1.98;;;1.42;;
24159;SDS011;62385;41.594;23.808;2023-05-15T03:43:17;7.95;;;3.00;;
24159;SDS011;62385;41.594;23.808;2023-05-15T03:45:42;4.53;;;2.88;;
24159;SDS011;62385;41.594;23.808;2023-05-15T03:48:08;11.75;;;1.98;;
24159;SDS011;62385;41.594;23.808;2023-05-15T03:50:33;3.08;;;1.70;;
24159;SDS011;62385;41.594;23.808;2023-05-15T03:53:01;2.55;;;1.55;;
24159;SDS011;62385;41.594;23.808;2023-05-15T03:55:27;20.42;;;7.55;;
24159;SDS011;62385;41.594;23.808;2023-05-15T03:57:52;4.07;;;2.50;;
24159;SDS011;62385;41.594;23.808;2023-05-15T04:00:18;2.95;;;1.85;;
24159;SDS011;62385;41.594;23.808;2023-05-15T04:02:46;6.18;;;3.38;;
24159;SDS011;62385;41.594;23.808;2023-05-15T04:05:11;4.07;;;2.58;;
24159;SDS011;62385;41.594;23.808;2023-05-15T04:07:38;15.52;;;3.47;;
24159;SDS011;62385;41.594;23.808;2023-05-15T04:10:03;4.13;;;2.25;;
24159;SDS011;62385;41.594;23.808;2023-05-15T04:12:31;2.13;;;1.92;;
24159;SDS011;62385;41.594;23.808;2023-05-15T04:14:58;2.95;;;2.08;;
24159;SDS011;62385;41.594;23.808;2023-05-15T04:17:38;1.95;;;1.80;;
24159;SDS011;62385;41.594;23.808;2023-05-15T04:20:04;2.28;;;1.08;;
24159;SDS011;62385;41.594;23.808;2023-05-15T04:22:32;1.45;;;1.35;;
24159;SDS011;62385;41.594;23.808;2023-05-15T04:24:57;2.00;;;1.52;;
24159;SDS011;62385;41.594;23.808;2023-05-15T04:27:24;2.83;;;2.00;;
24159;SDS011;62385;41.594;23.808;2023-05-15T04:29:50;2.72;;;1.70;;
24159;SDS011;62385;41.594;23.808;2023-05-15T04:32:16;1.63;;;1.42;;
24159;SDS011;62385;41.594;23.808;2023-05-15T04:34:42;3.45;;;1.95;;
24159;SDS011;62385;41.594;23.808;2023-05-15T04:37:08;4.03;;;2.80;;
24159;SDS011;62385;41.594;23.808;2023-05-15T04:39:35;5.00;;;2.13;;
24159;SDS011;62385;41.594;23.808;2023-05-15T04:42:00;2.38;;;1.30;;
24159;SDS011;62385;41.594;23.808;2023-05-15T04:44:26;3.42;;;2.05;;
24159;SDS011;62385;41.594;23.808;2023-05-15T04:46:52;3.45;;;2.53;;
24159;SDS011;62385;41.594;23.808;2023-05-15T04:49:17;2.28;;;2.08;;
24159;SDS011;62385;41.594;23.808;2023-05-15T04:51:43;11.20;;;1.92;;
24159;SDS011;62385;41.594;23.808;2023-05-15T04:54:08;1.92;;;1.65;;
24159;SDS011;62385;41.594;23.808;2023-05-15T04:56:34;2.67;;;1.85;;
24159;SDS011;62385;41.594;23.808;2023-05-15T04:59:00;3.55;;;2.25;;
24159;SDS011;62385;41.594;23.808;2023-05-15T05:01:27;2.58;;;1.48;;
24159;SDS011;62385;41.594;23.808;2023-05-15T05:03:53;9.73;;;2.17;;
24159;SDS011;62385;41.594;23.808;2023-05-15T05:06:19;3.25;;;2.70;;
24159;SDS011;62385;41.594;23.808;2023-05-15T05:08:44;5.75;;;3.72;;
24159;SDS011;62385;41.594;23.808;2023-05-15T05:11:10;7.85;;;2.38;;
24159;SDS011;62385;41.594;23.808;2023-05-15T05:13:35;5.03;;;2.30;;
24159;SDS011;62385;41.594;23.808;2023-05-15T05:16:01;8.82;;;3.92;;
24159;SDS011;62385;41.594;23.808;2023-05-15T05:18:27;5.53;;;3.15;;
24159;SDS011;62385;41.594;23.808;2023-05-15T05:21:00;3.55;;;2.28;;
24159;SDS011;62385;41.594;23.808;2023-05-15T05:23:28;4.30;;;3.13;;
24159;SDS011;62385;41.594;23.808;2023-05-15T05:25:54;2.60;;;1.38;;
24159;SDS011;62385;41.594;23.808;2023-05-15T05:28:20;2.13;;;1.65;;
24159;SDS011;62385;41.594;23.808;2023-05-15T05:30:46;3.00;;;2.10;;
24159;SDS011;62385;41.594;23.808;2023-05-15T05:33:13;1.73;;;1.33;;
24159;SDS011;62385;41.594;23.808;2023-05-15T05:35:39;7.05;;;2.40;;
24159;SDS011;62385;41.594;23.808;2023-05-15T05:38:04;1.35;;;1.20;;
24159;SDS011;62385;41.594;23.808;2023-05-15T05:40:30;2.25;;;1.45;;
24159;SDS011;62385;41.594;23.808;2023-05-15T05:42:59;2.13;;;1.38;;
24159;SDS011;62385;41.594;23.808;2023-05-15T05:45:28;2.53;;;1.67;;
24159;SDS011;62385;41.594;23.808;2023-05-15T05:47:55;2.35;;;2.10;;
24159;SDS011;62385;41.594;23.808;2023-05-15T05:50:21;5.75;;;1.90;;
24159;SDS011;62385;41.594;23.808;2023-05-15T05:52:47;3.50;;;1.90;;
24159;SDS011;62385;41.594;23.808;2023-05-15T05:55:13;1.52;;;1.42;;
24159;SDS011;62385;41.594;23.808;2023-05-15T05:57:39;8.70;;;3.88;;
24159;SDS011;62385;41.594;23.808;2023-05-15T06:00:05;6.93;;;4.88;;
24159;SDS011;62385;41.594;23.808;2023-05-15T06:02:38;10.60;;;4.88;;
24159;SDS011;62385;41.594;23.808;2023-05-15T06:05:05;7.13;;;3.65;;
24159;SDS011;62385;41.594;23.808;2023-05-15T06:07:32;2.80;;;1.60;;
24159;SDS011;62385;41.594;23.808;2023-05-15T06:09:58;9.52;;;3.33;;
24159;SDS011;62385;41.594;23.808;2023-05-15T06:12:24;2.90;;;2.40;;
24159;SDS011;62385;41.594;23.808;2023-05-15T06:14:51;5.85;;;3.17;;
24159;SDS011;62385;41.594;23.808;2023-05-15T06:17:16;5.85;;;2.50;;
24159;SDS011;62385;41.594;23.808;2023-05-15T06:19:43;8.60;;;4.80;;
24159;SDS011;62385;41.594;23.808;2023-05-15T06:22:08;7.88;;;3.38;;
24159;SDS011;62385;41.594;23.808;2023-05-15T06:24:34;11.70;;;6.53;;
24159;SDS011;62385;41.594;23.808;2023-05-15T06:26:59;6.18;;;2.83;;
24159;SDS011;62385;41.594;23.808;2023-05-15T06:29:25;3.40;;;1.58;;
24159;SDS011;62385;41.594;23.808;2023-05-15T06:31:51;2.05;;;1.70;;
24159;SDS011;62385;41.594;23.808;2023-05-15T06:34:17;3.67;;;1.90;;
24159;SDS011;62385;41.594;23.808;2023-05-15T06:36:43;2.88;;;2.20;;
24159;SDS011;62385;41.594;23.808;2023-05-15T06:39:10;3.15;;;2.10;;
24159;SDS011;62385;41.594;23.808;2023-05-15T06:41:36;3.72;;;1.58;;
24159;SDS011;62385;41.594;23.808;2023-05-15T06:44:03;2.80;;;2.25;;
24159;SDS011;62385;41.594;23.808;2023-05-15T06:46:28;3.83;;;2.25;;
24159;SDS011;62385;41.594;23.808;2023-05-15T06:48:54;3.40;;;2.47;;
24159;SDS011;62385;41.594;23.808;2023-05-15T06:51:19;3.03;;;2.00;;
24159;SDS011;62385;41.594;23.808;2023-05-15T06:53:45;3.28;;;2.63;;
24159;SDS011;62385;41.594;23.808;2023-05-15T06:56:11;3.60;;;2.38;;
24159;SDS011;62385;41.594;23.808;2023-05-15T06:58:38;4.53;;;2.53;;
24159;SDS011;62385;41.594;23.808;2023-05-15T07:01:03;2.30;;;2.10;;
24159;SDS011;62385;41.594;23.808;2023-05-15T07:03:31;4.20;;;1.73;;
24159;SDS011;62385;41.594;23.808;2023-05-15T07:05:56;2.00;;;1.52;;
24159;SDS011;62385;41.594;23.808;2023-05-15T07:08:22;9.02;;;2.30;;
24159;SDS011;62385;41.594;23.808;2023-05-15T07:10:48;3.40;;;2.42;;
24159;SDS011;62385;41.594;23.808;2023-05-15T07:13:17;3.63;;;2.10;;
24159;SDS011;62385;41.594;23.808;2023-05-15T07:15:44;2.25;;;1.88;;
24159;SDS011;62385;41.594;23.808;2023-05-15T07:18:10;2.72;;;1.85;;
24159;SDS011;62385;41.594;23.808;2023-05-15T07:20:35;3.28;;;2.47;;
24159;SDS011;62385;41.594;23.808;2023-05-15T07:23:01;2.60;;;1.85;;
24159;SDS011;62385;41.594;23.808;2023-05-15T07:25:27;3.90;;;2.45;;
24159;SDS011;62385;41.594;23.808;2023-05-15T07:27:53;2.50;;;1.85;;
24159;SDS011;62385;41.594;23.808;2023-05-15T07:30:18;2.78;;;1.80;;
24159;SDS011;62385;41.594;23.808;2023-05-15T07:32:44;5.28;;;2.67;;
24159;SDS011;62385;41.594;23.808;2023-05-15T07:35:10;4.28;;;2.88;;
24159;SDS011;62385;41.594;23.808;2023-05-15T07:37:36;4.15;;;2.35;;
24159;SDS011;62385;41.594;23.808;2023-05-15T07:40:03;4.88;;;2.88;;
24159;SDS011;62385;41.594;23.808;2023-05-15T07:42:29;3.13;;;2.47;;
24159;SDS011;62385;41.594;23.808;2023-05-15T07:44:56;3.67;;;2.30;;
24159;SDS011;62385;41.594;23.808;2023-05-15T07:47:21;3.17;;;2.38;;
24159;SDS011;62385;41.594;23.808;2023-05-15T07:49:48;2.33;;;2.13;;
24159;SDS011;62385;41.594;23.808;2023-05-15T07:52:13;2.25;;;1.88;;
24159;SDS011;62385;41.594;23.808;2023-05-15T07:54:39;9.18;;;1.65;;
24159;SDS011;62385;41.594;23.808;2023-05-15T07:57:06;1.70;;;1.20;;
24159;SDS011;62385;41.594;23.808;2023-05-15T07:59:33;2.72;;;1.65;;
24159;SDS011;62385;41.594;23.808;2023-05-15T08:01:59;2.03;;;1.50;;
24159;SDS011;62385;41.594;23.808;2023-05-15T08:04:24;2.42;;;1.85;;
24159;SDS011;62385;41.594;23.808;2023-05-15T08:06:50;1.60;;;1.50;;
24159;SDS011;62385;41.594;23.808;2023-05-15T08:09:16;7.65;;;2.90;;
24159;SDS011;62385;41.594;23.808;2023-05-15T08:11:42;3.83;;;2.58;;
24159;SDS011;62385;41.594;23.808;2023-05-15T08:14:08;2.30;;;1.98;;
24159;SDS011;62385;41.594;23.808;2023-05-15T08:16:34;5.57;;;3.35;;
24159;SDS011;62385;41.594;23.808;2023-05-15T08:19:00;3.85;;;2.78;;
24159;SDS011;62385;41.594;23.808;2023-05-15T08:21:29;4.13;;;2.38;;
24159;SDS011;62385;41.594;23.808;2023-05-15T08:23:56;6.43;;;2.83;;
24159;SDS011;62385;41.594;23.808;2023-05-15T08:26:21;5.68;;;2.78;;
24159;SDS011;62385;41.594;23.808;2023-05-15T08:28:47;3.50;;;2.50;;
24159;SDS011;62385;41.594;23.808;2023-05-15T08:31:12;4.43;;;3.53;;
24159;SDS011;62385;41.594;23.808;2023-05-15T08:33:38;5.10;;;3.53;;
24159;SDS011;62385;41.594;23.808;2023-05-15T08:36:04;3.95;;;3.47;;
24159;SDS011;62385;41.594;23.808;2023-05-15T08:38:30;5.05;;;3.47;;
24159;SDS011;62385;41.594;23.808;2023-05-15T08:40:56;4.10;;;3.10;;
24159;SDS011;62385;41.594;23.808;2023-05-15T08:43:23;7.60;;;3.05;;
24159;SDS011;62385;41.594;23.808;2023-05-15T08:45:51;3.63;;;3.15;;
24159;SDS011;62385;41.594;23.808;2023-05-15T08:48:18;3.55;;;2.88;;
24159;SDS011;62385;41.594;23.808;2023-05-15T08:50:46;4.45;;;2.60;;
24159;SDS011;62385;41.594;23.808;2023-05-15T08:53:13;6.30;;;3.92;;
24159;SDS011;62385;41.594;23.808;2023-05-15T08:55:39;4.55;;;2.90;;
24159;SDS011;62385;41.594;23.808;2023-05-15T08:58:07;6.07;;;3.58;;
24159;SDS011;62385;41.594;23.808;2023-05-15T09:00:33;5.13;;;3.17;;
24159;SDS011;62385;41.594;23.808;2023-05-15T09:02:59;11.27;;;5.65;;
24159;SDS011;62385;41.594;23.808;2023-05-15T09:05:28;4.10;;;3.15;;
24159;SDS011;62385;41.594;23.808;2023-05-15T09:07:54;3.80;;;2.47;;
24159;SDS011;62385;41.594;23.808;2023-05-15T09:10:21;4.03;;;2.85;;
24159;SDS011;62385;41.594;23.808;2023-05-15T09:12:47;3.05;;;2.03;;
24159;SDS011;62385;41.594;23.808;2023-05-15T09:15:16;5.18;;;2.80;;
24159;SDS011;62385;41.594;23.808;2023-05-15T09:17:46;4.35;;;2.63;;
24159;SDS011;62385;41.594;23.808;2023-05-15T09:22:57;6.68;;;2.08;;
24159;SDS011;62385;41.594;23.808;2023-05-15T09:28:03;2.80;;;1.77;;
24159;SDS011;62385;41.594;23.808;2023-05-15T09:30:30;2.35;;;1.50;;
24159;SDS011;62385;41.594;23.808;2023-05-15T09:32:59;2.30;;;1.67;;
24159;SDS011;62385;41.594;23.808;2023-05-15T09:35:34;1.48;;;1.33;;
24159;SDS011;62385;41.594;23.808;2023-05-15T09:38:03;2.45;;;1.65;;
24159;SDS011;62385;41.594;23.808;2023-05-15T09:40:59;1.45;;;1.20;;
24159;SDS011;62385;41.594;23.808;2023-05-15T09:43:32;1.95;;;1.75;;
24159;SDS011;62385;41.594;23.808;2023-05-15T09:46:01;2.28;;;1.45;;
24159;SDS011;62385;41.594;23.808;2023-05-15T09:48:28;1.42;;;1.15;;
24159;SDS011;62385;41.594;23.808;2023-05-15T09:50:54;1.65;;;1.20;;
24159;SDS011;62385;41.594;23.808;2023-05-15T09:53:20;1.38;;;1.15;;
24159;SDS011;62385;41.594;23.808;2023-05-15T09:55:46;4.93;;;1.73;;
24159;SDS011;62385;41.594;23.808;2023-05-15T09:58:16;2.70;;;1.48;;
24159;SDS011;62385;41.594;23.808;2023-05-15T10:00:44;1.02;;;0.90;;
24159;SDS011;62385;41.594;23.808;2023-05-15T10:03:10;1.65;;;0.98;;
24159;SDS011;62385;41.594;23.808;2023-05-15T10:05:37;3.92;;;1.70;;
24159;SDS011;62385;41.594;23.808;2023-05-15T10:08:03;2.45;;;1.23;;
24159;SDS011;62385;41.594;23.808;2023-05-15T10:10:31;0.80;;;0.80;;
24159;SDS011;62385;41.594;23.808;2023-05-15T10:12:57;1.27;;;0.98;;
24159;SDS011;62385;41.594;23.808;2023-05-15T10:15:27;1.67;;;1.15;;
24159;SDS011;62385;41.594;23.808;2023-05-15T10:17:54;0.95;;;0.80;;
24159;SDS011;62385;41.594;23.808;2023-05-15T10:20:21;4.47;;;1.27;;
24159;SDS011;62385;41.594;23.808;2023-05-15T10:22:49;4.63;;;1.25;;
24159;SDS011;62385;41.594;23.808;2023-05-15T10:25:22;2.05;;;1.13;;
24159;SDS011;62385;41.594;23.808;2023-05-15T10:27:52;0.75;;;0.65;;
24159;SDS011;62385;41.594;23.808;2023-05-15T10:30:19;1.55;;;1.15;;
24159;SDS011;62385;41.594;23.808;2023-05-15T10:32:46;3.03;;;1.45;;
24159;SDS011;62385;41.594;23.808;2023-05-15T10:35:13;1.52;;;1.20;;
24159;SDS011;62385;41.594;23.808;2023-05-15T10:37:39;1.48;;;1.23;;
24159;SDS011;62385;41.594;23.808;2023-05-15T10:40:06;0.93;;;0.80;;
24159;SDS011;62385;41.594;23.808;2023-05-15T10:42:35;2.45;;;1.70;;
24159;SDS011;62385;41.594;23.808;2023-05-15T10:45:01;1.38;;;1.08;;
24159;SDS011;62385;41.594;23.808;2023-05-15T10:47:28;4.55;;;2.15;;
24159;SDS011;62385;41.594;23.808;2023-05-15T10:49:55;1.58;;;1.27;;
24159;SDS011;62385;41.594;23.808;2023-05-15T10:52:21;1.92;;;1.60;;
24159;SDS011;62385;41.594;23.808;2023-05-15T10:54:47;3.50;;;1.58;;
24159;SDS011;62385;41.594;23.808;2023-05-15T10:57:13;1.63;;;1.23;;
24159;SDS011;62385;41.594;23.808;2023-05-15T10:59:39;3.05;;;1.60;;
24159;SDS011;62385;41.594;23.808;2023-05-15T11:02:23;1.13;;;1.02;;
24159;SDS011;62385;41.594;23.808;2023-05-15T11:07:20;3.65;;;1.48;;
24159;SDS011;62385;41.594;23.808;2023-05-15T11:09:46;4.68;;;1.17;;
24159;SDS011;62385;41.594;23.808;2023-05-15T11:12:11;1.60;;;0.95;;
24159;SDS011;62385;41.594;23.808;2023-05-15T11:17:36;1.67;;;1.40;;
24159;SDS011;62385;41.594;23.808;2023-05-15T11:20:02;2.47;;;1.42;;
24159;SDS011;62385;41.594;23.808;2023-05-15T11:25:06;1.65;;;1.20;;
24159;SDS011;62385;41.594;23.808;2023-05-15T11:27:39;1.33;;;0.95;;
24159;SDS011;62385;41.594;23.808;2023-05-15T11:35:21;1.42;;;1.33;;
24159;SDS011;62385;41.594;23.808;2023-05-15T11:37:49;1.55;;;0.93;;
24159;SDS011;62385;41.594;23.808;2023-05-15T11:40:19;2.42;;;1.08;;
24159;SDS011;62385;41.594;23.808;2023-05-15T11:45:29;2.92;;;1.23;;
24159;SDS011;62385;41.594;23.808;2023-05-15T11:47:58;1.40;;;0.85;;
24159;SDS011;62385;41.594;23.808;2023-05-15T11:50:25;1.75;;;1.20;;
24159;SDS011;62385;41.594;23.808;2023-05-15T11:52:51;2.30;;;1.15;;
24159;SDS011;62385;41.594;23.808;2023-05-15T11:55:17;1.48;;;0.93;;
24159;SDS011;62385;41.594;23.808;2023-05-15T11:57:45;2.08;;;1.30;;
24159;SDS011;62385;41.594;23.808;2023-05-15T12:00:11;3.72;;;2.20;;
24159;SDS011;62385;41.594;23.808;2023-05-15T12:02:37;1.33;;;1.13;;
24159;SDS011;62385;41.594;23.808;2023-05-15T12:05:05;3.47;;;1.65;;
24159;SDS011;62385;41.594;23.808;2023-05-15T12:07:34;5.18;;;1.58;;
24159;SDS011;62385;41.594;23.808;2023-05-15T12:10:02;1.60;;;1.13;;
24159;SDS011;62385;41.594;23.808;2023-05-15T12:12:28;2.22;;;1.13;;
24159;SDS011;62385;41.594;23.808;2023-05-15T12:14:56;1.23;;;0.88;;
24159;SDS011;62385;41.594;23.808;2023-05-15T12:17:23;4.03;;;1.52;;
24159;SDS011;62385;41.594;23.808;2023-05-15T12:19:49;2.35;;;1.73;;
24159;SDS011;62385;41.594;23.808;2023-05-15T12:22:16;1.48;;;0.80;;
24159;SDS011;62385;41.594;23.808;2023-05-15T12:24:44;0.75;;;0.75;;
24159;SDS011;62385;41.594;23.808;2023-05-15T12:27:09;2.17;;;1.20;;
24159;SDS011;62385;41.594;23.808;2023-05-15T12:29:37;1.35;;;1.10;;
24159;SDS011;62385;41.594;23.808;2023-05-15T12:32:04;1.95;;;1.58;;
24159;SDS011;62385;41.594;23.808;2023-05-15T12:34:30;1.98;;;1.55;;
24159;SDS011;62385;41.594;23.808;2023-05-15T12:36:56;1.67;;;1.25;;
24159;SDS011;62385;41.594;23.808;2023-05-15T12:39:25;2.78;;;1.80;;
24159;SDS011;62385;41.594;23.808;2023-05-15T12:41:51;1.80;;;0.95;;
24159;SDS011;62385;41.594;23.808;2023-05-15T12:44:21;0.88;;;0.70;;
24159;SDS011;62385;41.594;23.808;2023-05-15T12:46:49;4.50;;;1.13;;
24159;SDS011;62385;41.594;23.808;2023-05-15T12:49:21;1.20;;;1.10;;
24159;SDS011;62385;41.594;23.808;2023-05-15T12:51:47;1.60;;;1.02;;
24159;SDS011;62385;41.594;23.808;2023-05-15T12:54:19;4.00;;;1.42;;
24159;SDS011;62385;41.594;23.808;2023-05-15T12:56:46;2.03;;;1.10;;
24159;SDS011;62385;41.594;23.808;2023-05-15T12:59:12;1.88;;;1.10;;
24159;SDS011;62385;41.594;23.808;2023-05-15T13:01:39;1.20;;;1.00;;
24159;SDS011;62385;41.594;23.808;2023-05-15T13:04:06;1.50;;;0.90;;
24159;SDS011;62385;41.594;23.808;2023-05-15T13:06:32;1.15;;;1.05;;
24159;SDS011;62385;41.594;23.808;2023-05-15T13:08:58;2.35;;;1.60;;
24159;SDS011;62385;41.594;23.808;2023-05-15T13:11:28;2.05;;;1.40;;
24159;SDS011;62385;41.594;23.808;2023-05-15T13:13:55;1.55;;;1.05;;
24159;SDS011;62385;41.594;23.808;2023-05-15T13:16:22;1.73;;;1.48;;
24159;SDS011;62385;41.594;23.808;2023-05-15T13:18:49;1.90;;;1.13;;
24159;SDS011;62385;41.594;23.808;2023-05-15T13:21:15;0.93;;;0.82;;
24159;SDS011;62385;41.594;23.808;2023-05-15T13:23:41;1.08;;;0.95;;
24159;SDS011;62385;41.594;23.808;2023-05-15T13:26:07;1.50;;;1.00;;
24159;SDS011;62385;41.594;23.808;2023-05-15T13:28:34;2.58;;;0.95;;
24159;SDS011;62385;41.594;23.808;2023-05-15T13:30:59;2.75;;;1.30;;
24159;SDS011;62385;41.594;23.808;2023-05-15T13:33:25;1.55;;;1.00;;
24159;SDS011;62385;41.594;23.808;2023-05-15T13:35:51;1.25;;;1.00;;
24159;SDS011;62385;41.594;23.808;2023-05-15T13:38:17;3.13;;;1.42;;
24159;SDS011;62385;41.594;23.808;2023-05-15T13:40:43;2.75;;;1.60;;
24159;SDS011;62385;41.594;23.808;2023-05-15T13:43:09;2.47;;;1.15;;
24159;SDS011;62385;41.594;23.808;2023-05-15T13:45:35;1.95;;;1.17;;
24159;SDS011;62385;41.594;23.808;2023-05-15T13:48:02;1.88;;;1.55;;
24159;SDS011;62385;41.594;23.808;2023-05-15T13:50:28;1.30;;;0.93;;
24159;SDS011;62385;41.594;23.808;2023-05-15T13:52:55;2.75;;;1.35;;
24159;SDS011;62385;41.594;23.808;2023-05-15T13:55:20;1.48;;;1.10;;
24159;SDS011;62385;41.594;23.808;2023-05-15T13:57:46;3.42;;;1.35;;
24159;SDS011;62385;41.594;23.808;2023-05-15T14:00:12;1.35;;;1.00;;
24159;SDS011;62385;41.594;23.808;2023-05-15T14:02:39;2.17;;;1.30;;
24159;SDS011;62385;41.594;23.808;2023-05-15T14:05:06;1.50;;;1.08;;
24159;SDS011;62385;41.594;23.808;2023-05-15T14:07:32;1.67;;;1.20;;
24159;SDS011;62385;41.594;23.808;2023-05-15T14:09:57;1.55;;;1.20;;
24159;SDS011;62385;41.594;23.808;2023-05-15T14:12:23;6.50;;;0.93;;
24159;SDS011;62385;41.594;23.808;2023-05-15T14:14:49;1.58;;;1.27;;
24159;SDS011;62385;41.594;23.808;2023-05-15T14:17:15;1.58;;;1.20;;
24159;SDS011;62385;41.594;23.808;2023-05-15T14:19:40;3.17;;;1.25;;
24159;SDS011;62385;41.594;23.808;2023-05-15T14:22:07;6.50;;;1.52;;
24159;SDS011;62385;41.594;23.808;2023-05-15T14:24:32;1.27;;;1.00;;
24159;SDS011;62385;41.594;23.808;2023-05-15T14:26:58;1.40;;;1.10;;
24159;SDS011;62385;41.594;23.808;2023-05-15T14:29:24;2.08;;;0.98;;
24159;SDS011;62385;41.594;23.808;2023-05-15T14:31:50;2.53;;;1.17;;
24159;SDS011;62385;41.594;23.808;2023-05-15T14:34:16;2.25;;;0.82;;
24159;SDS011;62385;41.594;23.808;2023-05-15T14:36:42;1.20;;;1.10;;
24159;SDS011;62385;41.594;23.808;2023-05-15T14:39:08;2.38;;;1.20;;
24159;SDS011;62385;41.594;23.808;2023-05-15T14:41:33;1.48;;;1.00;;
24159;SDS011;62385;41.594;23.808;2023-05-15T14:43:59;1.75;;;1.10;;
24159;SDS011;62385;41.594;23.808;2023-05-15T14:46:25;2.35;;;1.45;;
24159;SDS011;62385;41.594;23.808;2023-05-15T14:48:50;2.33;;;1.17;;
24159;SDS011;62385;41.594;23.808;2023-05-15T14:51:17;2.15;;;1.38;;
24159;SDS011;62385;41.594;23.808;2023-05-15T14:53:42;1.30;;;0.98;;
24159;SDS011;62385;41.594;23.808;2023-05-15T14:56:08;1.67;;;1.10;;
24159;SDS011;62385;41.594;23.808;2023-05-15T14:58:34;0.85;;;0.77;;